createdAt,value
2022-07-25T00:00:12.060Z,952.803894
2022-07-25T00:01:12.865Z,952.8447876
2022-07-25T00:02:14.522Z,952.8198242
2022-07-25T00:03:18.527Z,952.7876587
2022-07-25T00:04:16.124Z,952.8286133
2022-07-25T00:05:16.778Z,952.805603
2022-07-25T00:06:17.759Z,952.8046875
2022-07-25T00:07:18.948Z,952.8057251
2022-07-25T00:08:20.415Z,952.8067017
2022-07-25T00:09:21.269Z,952.819458
2022-07-25T00:10:22.134Z,952.8043823
2022-07-25T00:11:22.992Z,952.8202515
2022-07-25T00:12:23.766Z,952.8279419
2022-07-25T00:13:24.587Z,952.8063965
2022-07-25T00:14:25.334Z,952.8413086
2022-07-25T00:15:26.013Z,952.7922363
2022-07-25T00:16:26.812Z,952.793457
2022-07-25T00:17:28.387Z,952.8005981
2022-07-25T00:18:29.149Z,952.7791138
2022-07-25T00:19:29.905Z,952.7374268
2022-07-25T00:20:30.629Z,952.7373657
2022-07-25T00:21:31.424Z,952.7363281
2022-07-25T00:22:32.071Z,952.7277832
2022-07-25T00:23:32.758Z,952.7001343
2022-07-25T00:24:34.416Z,952.6637573
2022-07-25T00:26:05.483Z,952.6887207
2022-07-25T00:27:06.978Z,952.651123
2022-07-25T00:28:07.760Z,952.6609497
2022-07-25T00:29:08.553Z,952.6496582
2022-07-25T00:30:09.291Z,952.661377
2022-07-25T00:31:10.247Z,952.6447144
2022-07-25T00:32:11.729Z,952.6451416
2022-07-25T00:33:12.508Z,952.6565552
2022-07-25T00:34:13.312Z,952.6462402
2022-07-25T00:35:13.996Z,952.678772
2022-07-25T00:36:15.299Z,952.6665649
2022-07-25T00:37:17.003Z,952.6287231
2022-07-25T00:38:17.753Z,952.6098633
2022-07-25T00:39:18.432Z,952.6212769
2022-07-25T00:40:19.096Z,952.6373291
2022-07-25T00:41:19.818Z,952.6010132
2022-07-25T00:42:20.626Z,952.574707
2022-07-25T00:43:21.358Z,952.5708008
2022-07-25T00:44:22.127Z,952.5951538
2022-07-25T00:45:22.815Z,952.6071777
2022-07-25T00:46:23.624Z,952.6340332
2022-07-25T00:47:24.971Z,952.6442871
2022-07-25T00:48:25.852Z,952.644043
2022-07-25T00:49:27.430Z,952.6542358
2022-07-25T00:50:28.084Z,952.6455688
2022-07-25T00:51:28.876Z,952.6433105
2022-07-25T00:52:29.718Z,952.6638794
2022-07-25T00:53:30.483Z,952.6377563
2022-07-25T00:54:31.215Z,952.6207886
2022-07-25T00:55:31.930Z,952.6323242
2022-07-25T00:56:32.645Z,952.6412354
2022-07-25T00:57:34.535Z,952.6140137
2022-07-25T00:59:05.656Z,952.633606
2022-07-25T01:00:06.375Z,952.5838013
2022-07-25T01:01:07.129Z,952.5948486
2022-07-25T01:02:07.950Z,952.6358032
2022-07-25T01:03:09.496Z,952.6104736
2022-07-25T01:04:10.191Z,952.6398315
2022-07-25T01:05:10.994Z,952.5778809
2022-07-25T01:06:11.578Z,952.6105957
2022-07-25T01:07:12.964Z,952.5834351
2022-07-25T01:08:14.501Z,952.6281128
2022-07-25T01:09:15.258Z,952.5953369
2022-07-25T01:10:16.007Z,952.6095581
2022-07-25T01:11:16.707Z,952.5917969
2022-07-25T01:12:17.485Z,952.5654907
2022-07-25T01:13:18.301Z,952.5584106
2022-07-25T01:14:19.070Z,952.5519409
2022-07-25T01:15:19.826Z,952.6052856
2022-07-25T01:16:20.520Z,952.5697021
2022-07-25T01:17:21.961Z,952.5609131
2022-07-25T01:18:22.777Z,952.5429077
2022-07-25T01:19:23.540Z,952.5401611
2022-07-25T01:20:24.240Z,952.5547485
2022-07-25T01:21:24.891Z,952.5940552
2022-07-25T01:22:25.664Z,952.5424805
2022-07-25T01:23:26.530Z,952.5510864
2022-07-25T01:24:27.235Z,952.5859375
2022-07-25T01:25:27.917Z,952.5518799
2022-07-25T01:26:28.587Z,952.536377
2022-07-25T01:27:29.958Z,952.5549927
2022-07-25T01:28:30.765Z,952.5495605
2022-07-25T01:29:31.434Z,952.560791
2022-07-25T01:30:32.145Z,952.5925293
2022-07-25T01:31:32.951Z,952.5836182
2022-07-25T01:33:06.651Z,952.59552
2022-07-25T01:34:05.338Z,952.6037598
2022-07-25T01:35:06.275Z,952.6087646
2022-07-25T01:36:06.930Z,952.6003418
2022-07-25T01:37:07.683Z,952.6057129
2022-07-25T01:38:09.353Z,952.5818481
2022-07-25T01:39:10.186Z,952.611145
2022-07-25T01:40:10.873Z,952.6185913
2022-07-25T01:41:11.615Z,952.5982666
2022-07-25T01:42:12.437Z,952.5861816
2022-07-25T01:43:13.644Z,952.5739136
2022-07-25T01:44:14.666Z,952.5789185
2022-07-25T01:45:15.373Z,952.5626831
2022-07-25T01:46:16.086Z,952.5635986
2022-07-25T01:47:16.741Z,952.5498657
2022-07-25T01:48:18.360Z,952.557373
2022-07-25T01:49:19.244Z,952.5543213
2022-07-25T01:50:19.778Z,952.5723267
2022-07-25T01:51:20.639Z,952.5817261
2022-07-25T01:52:21.227Z,952.5541382
2022-07-25T01:53:22.049Z,952.5522461
2022-07-25T01:54:22.838Z,952.5413208
2022-07-25T01:55:23.512Z,952.5120239
2022-07-25T01:56:24.191Z,952.5593872
2022-07-25T01:57:30.126Z,952.5183105
2022-07-25T01:58:26.398Z,952.4749756
2022-07-25T01:59:27.204Z,952.4777832
2022-07-25T02:00:27.819Z,952.4738159
2022-07-25T02:01:28.640Z,952.491394
2022-07-25T02:02:29.429Z,952.5039063
2022-07-25T02:03:30.258Z,952.4668579
2022-07-25T02:04:31.107Z,952.4353638
2022-07-25T02:05:32.280Z,952.4213867
2022-07-25T02:07:03.572Z,952.4436646
2022-07-25T02:08:04.981Z,952.4246826
2022-07-25T02:09:05.814Z,952.4396362
2022-07-25T02:10:06.544Z,952.3934326
2022-07-25T02:11:07.182Z,952.3917236
2022-07-25T02:12:07.960Z,952.3878174
2022-07-25T02:13:08.751Z,952.3581543
2022-07-25T02:14:09.817Z,952.3873291
2022-07-25T02:15:10.333Z,952.3394775
2022-07-25T02:16:11.010Z,952.3348999
2022-07-25T02:17:11.985Z,952.3101807
2022-07-25T02:18:13.355Z,952.2946777
2022-07-25T02:19:14.133Z,952.2418823
2022-07-25T02:20:14.878Z,952.2477417
2022-07-25T02:21:15.555Z,952.274231
2022-07-25T02:22:16.272Z,952.2476807
2022-07-25T02:23:17.074Z,952.2592163
2022-07-25T02:24:17.871Z,952.2468872
2022-07-25T02:25:18.725Z,952.270752
2022-07-25T02:26:19.356Z,952.2312622
2022-07-25T02:27:20.064Z,952.2109375
2022-07-25T02:28:21.373Z,952.2126465
2022-07-25T02:29:22.316Z,952.248291
2022-07-25T02:30:22.866Z,952.2421265
2022-07-25T02:31:23.572Z,952.2190552
2022-07-25T02:32:24.254Z,952.2366943
2022-07-25T02:33:25.031Z,952.2213135
2022-07-25T02:34:25.783Z,952.2493896
2022-07-25T02:35:27.374Z,952.2449951
2022-07-25T02:36:28.004Z,952.246582
2022-07-25T02:37:28.826Z,952.2351685
2022-07-25T02:38:30.398Z,952.2493896
2022-07-25T02:39:31.196Z,952.2288208
2022-07-25T02:40:31.935Z,952.2316895
2022-07-25T02:42:03.132Z,952.2103271
2022-07-25T02:43:03.915Z,952.1953125
2022-07-25T02:44:05.195Z,952.1914063
2022-07-25T02:45:05.611Z,952.1780396
2022-07-25T02:46:06.384Z,952.149353
2022-07-25T02:47:06.965Z,952.1843262
2022-07-25T02:48:08.509Z,952.166626
2022-07-25T02:49:09.399Z,952.1709595
2022-07-25T02:50:10.160Z,952.1554565
2022-07-25T02:51:10.872Z,952.1598511
2022-07-25T02:52:11.530Z,952.1129761
2022-07-25T02:53:12.990Z,952.135498
2022-07-25T02:54:14.068Z,952.1033325
2022-07-25T02:55:14.565Z,952.1234131
2022-07-25T02:56:15.257Z,952.1096802
2022-07-25T02:57:15.929Z,952.117981
2022-07-25T02:58:17.483Z,952.0914307
2022-07-25T02:59:18.253Z,952.114502
2022-07-25T03:00:19.038Z,952.0959473
2022-07-25T03:01:19.872Z,952.0910645
2022-07-25T03:02:20.479Z,952.0449829
2022-07-25T03:03:21.989Z,952.0582886
2022-07-25T03:04:22.796Z,952.0929565
2022-07-25T03:05:23.521Z,952.079834
2022-07-25T03:06:24.809Z,952.0916138
2022-07-25T03:07:25.464Z,952.0820923
2022-07-25T03:08:27.004Z,952.0728149
2022-07-25T03:09:27.833Z,952.0488892
2022-07-25T03:10:28.588Z,952.0932007
2022-07-25T03:11:29.309Z,952.1029663
2022-07-25T03:12:29.968Z,952.1629639
2022-07-25T03:14:03.138Z,952.1514282
2022-07-25T03:15:03.662Z,952.1403198
2022-07-25T03:16:04.377Z,952.1188354
2022-07-25T03:17:05.141Z,952.1582642
2022-07-25T03:18:06.505Z,952.1637573
2022-07-25T03:19:07.339Z,952.1501465
2022-07-25T03:20:08.216Z,952.1472168
2022-07-25T03:21:08.941Z,952.1665039
2022-07-25T03:22:09.637Z,952.1537476
2022-07-25T03:23:10.429Z,952.1679077
2022-07-25T03:24:11.844Z,952.1387329
2022-07-25T03:25:15.858Z,952.1124878
2022-07-25T03:26:13.429Z,952.1154175
2022-07-25T03:27:14.183Z,952.0814209
2022-07-25T03:28:15.500Z,952.1038818
2022-07-25T03:29:16.344Z,952.0853271
2022-07-25T03:30:17.121Z,952.1090698
2022-07-25T03:31:18.021Z,952.1068726
2022-07-25T03:32:18.689Z,952.111084
2022-07-25T03:33:20.048Z,952.1063232
2022-07-25T03:34:20.819Z,952.0903931
2022-07-25T03:35:21.639Z,952.1132813
2022-07-25T03:36:22.361Z,952.0803223
2022-07-25T03:37:23.072Z,952.1073608
2022-07-25T03:38:24.522Z,952.1231079
2022-07-25T03:39:25.359Z,952.1295166
2022-07-25T03:40:26.142Z,952.1428223
2022-07-25T03:41:27.954Z,952.1503296
2022-07-25T03:42:32.181Z,952.1270142
2022-07-25T03:43:28.402Z,952.1082764
2022-07-25T03:44:29.199Z,952.1286621
2022-07-25T03:45:30.126Z,952.1171265
2022-07-25T03:46:30.950Z,952.1425781
2022-07-25T03:48:02.262Z,952.185791
2022-07-25T03:49:03.987Z,952.1790771
2022-07-25T03:50:04.780Z,952.1708374
2022-07-25T03:51:07.195Z,952.1599731
2022-07-25T03:52:06.225Z,952.1582031
2022-07-25T03:53:06.948Z,952.1640625
2022-07-25T03:54:08.068Z,952.1873169
2022-07-25T03:55:08.513Z,952.1599731
2022-07-25T03:56:09.297Z,952.1567383
2022-07-25T03:57:09.996Z,952.1418457
2022-07-25T03:58:10.714Z,952.1431885
2022-07-25T03:59:12.416Z,952.1687622
2022-07-25T04:00:13.222Z,952.1415405
2022-07-25T04:01:14.081Z,952.1624756
2022-07-25T04:02:14.873Z,952.1552124
2022-07-25T04:03:16.615Z,952.1564331
2022-07-25T04:04:17.319Z,952.1612549
2022-07-25T04:05:18.111Z,952.1350098
2022-07-25T04:06:18.902Z,952.1260376
2022-07-25T04:07:19.632Z,952.1088867
2022-07-25T04:08:21.018Z,952.1576538
2022-07-25T04:09:21.701Z,952.1677246
2022-07-25T04:10:22.509Z,952.171875
2022-07-25T04:11:23.337Z,952.1911621
2022-07-25T04:12:24.062Z,952.1802979
2022-07-25T04:13:25.634Z,952.1749878
2022-07-25T04:14:26.267Z,952.2286987
2022-07-25T04:15:27.052Z,952.2156372
2022-07-25T04:16:28.104Z,952.218811
2022-07-25T04:17:28.553Z,952.2140503
2022-07-25T04:18:30.160Z,952.1853027
2022-07-25T04:19:30.703Z,952.2128296
2022-07-25T04:21:02.090Z,952.2029419
2022-07-25T04:22:02.890Z,952.2132568
2022-07-25T04:23:03.595Z,952.1826782
2022-07-25T04:24:04.669Z,952.1936035
2022-07-25T04:25:05.158Z,952.1652832
2022-07-25T04:26:06.000Z,952.2006226
2022-07-25T04:27:06.850Z,952.1634521
2022-07-25T04:28:07.579Z,952.1608887
2022-07-25T04:29:08.874Z,952.1361084
2022-07-25T04:30:09.684Z,952.1663818
2022-07-25T04:31:10.557Z,952.1525879
2022-07-25T04:32:11.725Z,952.2106323
2022-07-25T04:33:12.322Z,952.1223145
2022-07-25T04:34:13.041Z,952.1307983
2022-07-25T04:35:13.845Z,952.1813965
2022-07-25T04:36:15.500Z,952.2154541
2022-07-25T04:37:16.293Z,952.2075806
2022-07-25T04:38:16.999Z,952.197876
2022-07-25T04:39:18.363Z,952.1782837
2022-07-25T04:40:19.155Z,952.2104492
2022-07-25T04:41:19.951Z,952.2229004
2022-07-25T04:42:20.849Z,952.2113037
2022-07-25T04:43:22.525Z,952.1848145
2022-07-25T04:44:23.216Z,952.1863403
2022-07-25T04:45:24.139Z,952.1707153
2022-07-25T04:46:24.841Z,952.1795044
2022-07-25T04:47:25.662Z,952.1860962
2022-07-25T04:48:26.414Z,952.210144
2022-07-25T04:49:28.049Z,952.2077637
2022-07-25T04:50:28.753Z,952.2093506
2022-07-25T04:51:29.594Z,952.192627
2022-07-25T04:52:30.375Z,952.2255249
2022-07-25T04:54:01.463Z,952.2410889
2022-07-25T04:55:02.268Z,952.1967163
2022-07-25T04:56:03.110Z,952.2023315
2022-07-25T04:57:03.892Z,952.2043457
2022-07-25T04:58:04.660Z,952.2151489
2022-07-25T04:59:06.822Z,952.2208862
2022-07-25T05:00:07.566Z,952.1873169
2022-07-25T05:01:08.389Z,952.2277222
2022-07-25T05:02:09.229Z,952.1937256
2022-07-25T05:03:09.960Z,952.227356
2022-07-25T05:04:10.751Z,952.1990356
2022-07-25T05:05:21.191Z,952.2114258
2022-07-25T05:06:13.914Z,952.1802979
2022-07-25T05:07:14.730Z,952.1760254
2022-07-25T05:08:15.529Z,952.1741333
2022-07-25T05:09:16.851Z,952.1491699
2022-07-25T05:10:17.576Z,952.1771851
2022-07-25T05:11:18.365Z,952.1878052
2022-07-25T05:12:19.148Z,952.1699829
2022-07-25T05:13:19.878Z,952.1939087
2022-07-25T05:14:20.606Z,952.2240601
2022-07-25T05:15:21.335Z,952.1513062
2022-07-25T05:16:22.167Z,952.1998291
2022-07-25T05:17:22.891Z,952.1995239
2022-07-25T05:18:23.728Z,952.196106
2022-07-25T05:19:25.342Z,952.2062988
2022-07-25T05:20:26.144Z,952.1968994
2022-07-25T05:21:26.910Z,952.21875
2022-07-25T05:22:29.122Z,952.2198486
2022-07-25T05:23:29.534Z,952.2126465
2022-07-25T05:24:30.720Z,952.2681274
2022-07-25T05:26:01.797Z,952.2354736
2022-07-25T05:27:02.468Z,952.2781982
2022-07-25T05:28:03.261Z,952.2263184
2022-07-25T05:29:05.039Z,952.2645264
2022-07-25T05:30:05.772Z,952.2387695
2022-07-25T05:31:06.680Z,952.2474976
2022-07-25T05:32:07.378Z,952.2845459
2022-07-25T05:33:08.190Z,952.269043
2022-07-25T05:34:09.974Z,952.2879639
2022-07-25T05:35:10.337Z,952.2496338
2022-07-25T05:36:11.052Z,952.1914063
2022-07-25T05:37:11.679Z,952.2203979
2022-07-25T05:38:12.381Z,952.2079468
2022-07-25T05:39:13.998Z,952.1948242
2022-07-25T05:40:14.701Z,952.2140503
2022-07-25T05:41:15.433Z,952.1937256
2022-07-25T05:42:16.234Z,952.1898193
2022-07-25T05:43:17.036Z,952.2382813
2022-07-25T05:44:17.811Z,952.2476807
2022-07-25T05:45:18.548Z,952.1864014
2022-07-25T05:46:19.366Z,952.1826782
2022-07-25T05:47:19.991Z,952.1848145
2022-07-25T05:48:20.676Z,952.1698608
2022-07-25T05:49:22.017Z,952.2003174
2022-07-25T05:50:22.704Z,952.1759644
2022-07-25T05:51:26.825Z,952.2064209
2022-07-25T05:52:24.148Z,952.157959
2022-07-25T05:53:24.976Z,952.149353
2022-07-25T05:54:26.540Z,952.1358643
2022-07-25T05:55:27.324Z,952.1765747
2022-07-25T05:56:28.026Z,952.1473389
2022-07-25T05:57:28.741Z,952.171875
2022-07-25T05:58:30.161Z,952.1348267
2022-07-25T06:00:02.047Z,952.2228394
2022-07-25T06:01:02.823Z,952.2201538
2022-07-25T06:02:03.828Z,952.2459106
2022-07-25T06:03:04.858Z,952.2301636
2022-07-25T06:04:05.749Z,952.2106934
2022-07-25T06:05:06.206Z,952.2037354
2022-07-25T06:06:07.525Z,952.2025757
2022-07-25T06:07:08.454Z,952.1798706
2022-07-25T06:08:08.905Z,952.2150269
2022-07-25T06:09:10.578Z,952.2005615
2022-07-25T06:10:41.615Z,952.2473145
2022-07-25T06:12:12.847Z,952.2321777
2022-07-25T06:13:13.610Z,952.1853027
2022-07-25T06:14:14.435Z,952.215332
2022-07-25T06:15:22.477Z,952.1738281
2022-07-25T06:16:15.893Z,952.1381226
2022-07-25T06:17:16.607Z,952.1690063
2022-07-25T06:18:17.379Z,952.1347046
2022-07-25T06:19:19.043Z,952.1707153
2022-07-25T06:20:20.176Z,952.0718994
2022-07-25T06:21:20.626Z,952.0466309
2022-07-25T06:22:21.330Z,952.0145874
2022-07-25T06:23:21.960Z,952.0084229
2022-07-25T06:24:22.632Z,952.0056152
2022-07-25T06:25:23.375Z,952.0050049
2022-07-25T06:26:24.056Z,952.0186157
2022-07-25T06:27:29.082Z,952.0308838
2022-07-25T06:28:25.467Z,951.9797363
2022-07-25T06:29:27.046Z,951.9710693
2022-07-25T06:30:27.860Z,952.006897
2022-07-25T06:31:28.578Z,952.0413818
2022-07-25T06:32:29.321Z,952.015625
2022-07-25T06:34:00.494Z,951.9910278
2022-07-25T06:35:01.993Z,952.0599976
2022-07-25T06:36:02.804Z,952.0007935
2022-07-25T06:37:03.589Z,951.9993896
2022-07-25T06:38:04.616Z,951.9790039
2022-07-25T06:39:05.276Z,951.9823608
2022-07-25T06:40:06.959Z,951.9904785
2022-07-25T06:41:07.755Z,951.9622803
2022-07-25T06:42:08.501Z,952.0178223
2022-07-25T06:43:09.220Z,952.0048218
2022-07-25T06:44:10.096Z,952.0184937
2022-07-25T06:45:10.666Z,952.013855
2022-07-25T06:46:11.729Z,952.0321655
2022-07-25T06:47:12.499Z,952.0355225
2022-07-25T06:48:13.314Z,952.0534668
2022-07-25T06:49:14.135Z,952.0643921
2022-07-25T06:50:15.464Z,952.0864258
2022-07-25T06:51:16.235Z,952.0465088
2022-07-25T06:52:16.955Z,952.0706177
2022-07-25T06:53:17.698Z,952.0117188
2022-07-25T06:54:18.356Z,952.0466919
2022-07-25T06:55:19.058Z,952.0158691
2022-07-25T06:56:19.742Z,952.012085
2022-07-25T06:57:20.455Z,951.9849854
2022-07-25T06:58:22.921Z,951.9829712
2022-07-25T06:59:21.989Z,952.0025024
2022-07-25T07:00:23.356Z,952.0012207
2022-07-25T07:01:24.108Z,952
2022-07-25T07:02:24.726Z,951.9927979
2022-07-25T07:03:25.495Z,951.9815674
2022-07-25T07:04:27.028Z,952.0189209
2022-07-25T07:05:27.704Z,951.9837646
2022-07-25T07:06:28.419Z,951.9979858
2022-07-25T07:07:29.516Z,951.9523926
2022-07-25T07:09:01.375Z,951.9609375
2022-07-25T07:10:02.862Z,951.9771118
2022-07-25T07:11:03.547Z,951.9519043
2022-07-25T07:12:04.240Z,951.9909668
2022-07-25T07:13:04.997Z,951.9590454
2022-07-25T07:14:06.204Z,951.9509277
2022-07-25T07:15:06.471Z,951.9564819
2022-07-25T07:16:07.268Z,951.9268799
2022-07-25T07:17:07.861Z,951.9612427
2022-07-25T07:18:08.557Z,951.9467163
2022-07-25T07:19:09.653Z,951.9554443
2022-07-25T07:20:10.871Z,951.9838257
2022-07-25T07:21:11.625Z,951.9782104
2022-07-25T07:22:12.329Z,951.991394
2022-07-25T07:23:16.550Z,951.9943848
2022-07-25T07:24:24.076Z,951.9665527
2022-07-25T07:25:14.372Z,951.967041
2022-07-25T07:26:15.033Z,951.951416
2022-07-25T07:27:15.759Z,951.960083
2022-07-25T07:28:16.445Z,951.9506226
2022-07-25T07:29:17.127Z,951.9813843
2022-07-25T07:30:23.773Z,952.001709
2022-07-25T07:31:19.381Z,952.0061035
2022-07-25T07:32:19.838Z,951.9989624
2022-07-25T07:33:20.389Z,951.9876709
2022-07-25T07:34:21.082Z,951.9595337
2022-07-25T07:35:22.379Z,951.992981
2022-07-25T07:36:23.079Z,952.0404663
2022-07-25T07:37:23.745Z,951.9926758
2022-07-25T07:38:25.019Z,952.0064087
2022-07-25T07:39:25.728Z,951.9534302
2022-07-25T07:40:27.403Z,951.993042
2022-07-25T07:41:28.109Z,951.9906006
2022-07-25T07:42:29.213Z,951.9887695
2022-07-25T07:44:00.214Z,951.9731445
2022-07-25T07:45:00.910Z,952.0189819
2022-07-25T07:46:01.924Z,951.9813843
2022-07-25T07:47:02.213Z,951.9621582
2022-07-25T07:48:02.881Z,951.9403076
2022-07-25T07:49:03.993Z,951.935791
2022-07-25T07:50:05.077Z,951.9703979
2022-07-25T07:51:05.711Z,951.9528198
2022-07-25T07:52:06.419Z,951.9348145
2022-07-25T07:53:07.130Z,951.9281006
2022-07-25T07:54:07.879Z,951.9370117
2022-07-25T07:55:08.543Z,951.9434204
2022-07-25T07:56:09.194Z,951.9413452
2022-07-25T07:57:09.862Z,951.9378052
2022-07-25T07:58:10.575Z,951.9238892
2022-07-25T07:59:11.491Z,951.9263916
2022-07-25T08:00:16.539Z,951.8996582
2022-07-25T08:01:13.747Z,951.9223633
2022-07-25T08:02:14.449Z,951.9083862
2022-07-25T08:03:15.195Z,951.9266968
2022-07-25T08:04:15.785Z,951.882019
2022-07-25T08:05:17.453Z,951.8781128
2022-07-25T08:06:18.098Z,951.8774414
2022-07-25T08:07:18.818Z,951.8792114
2022-07-25T08:08:19.516Z,951.8776855
2022-07-25T08:09:20.208Z,951.8880615
2022-07-25T08:10:21.894Z,951.8289185
2022-07-25T08:11:22.586Z,951.8990479
2022-07-25T08:12:23.919Z,951.8493652
2022-07-25T08:13:24.614Z,951.8278809
2022-07-25T08:14:25.311Z,951.8982544
2022-07-25T08:15:26.551Z,951.8806152
2022-07-25T08:16:27.308Z,951.892334
2022-07-25T08:17:28.792Z,951.8306274
2022-07-25T08:18:59.909Z,951.7645264
2022-07-25T08:20:20.949Z,951.821106
2022-07-25T08:21:02.348Z,951.7765503
2022-07-25T08:22:02.995Z,951.7820435
2022-07-25T08:23:03.745Z,951.7460938
2022-07-25T08:24:04.798Z,951.7818604
2022-07-25T08:25:05.165Z,951.7714233
2022-07-25T08:26:05.902Z,951.8179932
2022-07-25T08:27:07.564Z,951.8250732
2022-07-25T08:28:08.295Z,951.7946777
2022-07-25T08:29:19.236Z,951.8059082
2022-07-25T08:30:11.069Z,951.8372803
2022-07-25T08:31:12.073Z,951.8292847
2022-07-25T08:32:12.679Z,951.7837524
2022-07-25T08:33:13.685Z,951.8225708
2022-07-25T08:34:14.033Z,951.8641968
2022-07-25T08:35:14.797Z,951.8869019
2022-07-25T08:36:15.532Z,951.8041992
2022-07-25T08:37:17.076Z,951.8364258
2022-07-25T08:38:17.825Z,951.8040771
2022-07-25T08:39:18.586Z,951.7706299
2022-07-25T08:40:20.048Z,951.8031006
2022-07-25T08:41:20.793Z,951.815918
2022-07-25T08:42:21.412Z,951.8602905
2022-07-25T08:43:22.090Z,951.8338013
2022-07-25T08:44:22.761Z,951.835022
2022-07-25T08:45:23.394Z,951.8395386
2022-07-25T08:46:24.281Z,951.7684326
2022-07-25T08:47:24.835Z,951.8376465
2022-07-25T08:48:25.714Z,951.8323364
2022-07-25T08:49:26.193Z,951.8671265
2022-07-25T08:50:27.392Z,951.8790894
2022-07-25T08:51:28.557Z,951.8129883
2022-07-25T08:53:31.092Z,951.843689
2022-07-25T08:54:00.901Z,951.8431396
2022-07-25T08:55:01.599Z,951.8605957
2022-07-25T08:56:06.668Z,951.8343506
2022-07-25T08:57:03.045Z,951.8404541
2022-07-25T08:58:03.843Z,951.8453369
2022-07-25T08:59:04.726Z,951.8439941
2022-07-25T09:00:06.090Z,951.8756104
2022-07-25T09:01:06.945Z,951.8726807
2022-07-25T09:02:08.510Z,951.8673706
2022-07-25T09:03:09.272Z,951.8824463
2022-07-25T09:04:10.478Z,951.861084
2022-07-25T09:05:10.538Z,951.8709106
2022-07-25T09:06:11.542Z,951.8136597
2022-07-25T09:07:13.177Z,951.8612671
2022-07-25T09:08:13.716Z,951.8909302
2022-07-25T09:09:14.396Z,951.8850098
2022-07-25T09:10:15.609Z,951.8604126
2022-07-25T09:11:16.238Z,951.8864136
2022-07-25T09:12:17.100Z,951.8703613
2022-07-25T09:13:17.588Z,951.8460693
2022-07-25T09:14:18.933Z,951.8267212
2022-07-25T09:15:19.662Z,951.8422852
2022-07-25T09:16:20.397Z,951.842041
2022-07-25T09:17:22.669Z,951.8222046
2022-07-25T09:18:21.689Z,951.8219604
2022-07-25T09:19:22.359Z,951.8800049
2022-07-25T09:20:24.046Z,951.8764038
2022-07-25T09:21:24.750Z,951.8413086
2022-07-25T09:22:25.488Z,951.8200073
2022-07-25T09:23:26.158Z,951.836731
2022-07-25T09:24:26.868Z,951.828125
2022-07-25T09:25:27.573Z,951.8318481
2022-07-25T09:26:58.805Z,951.8183594
2022-07-25T09:27:59.558Z,951.8691406
2022-07-25T09:29:00.228Z,951.821228
2022-07-25T09:30:00.976Z,951.8398438
2022-07-25T09:31:02.433Z,951.8290405
2022-07-25T09:32:03.048Z,951.8293457
2022-07-25T09:33:03.758Z,951.7915039
2022-07-25T09:34:04.855Z,951.826416
2022-07-25T09:35:06.057Z,951.8417358
2022-07-25T09:36:06.715Z,951.7722168
2022-07-25T09:37:07.478Z,951.8032837
2022-07-25T09:38:08.194Z,951.7753296
2022-07-25T09:39:08.855Z,951.7820435
2022-07-25T09:40:10.557Z,951.7351685
2022-07-25T09:41:12.062Z,951.7493896
2022-07-25T09:42:12.745Z,951.7416992
2022-07-25T09:43:13.474Z,951.7184448
2022-07-25T09:44:14.200Z,951.7277832
2022-07-25T09:45:15.024Z,951.7463989
2022-07-25T09:46:15.829Z,951.6815796
2022-07-25T09:47:16.602Z,951.7047119
2022-07-25T09:48:17.338Z,951.7246704
2022-07-25T09:49:18.191Z,951.708252
2022-07-25T09:50:18.879Z,951.6773682
2022-07-25T09:51:20.507Z,951.6981201
2022-07-25T09:52:21.235Z,951.6809082
2022-07-25T09:53:21.956Z,951.7084351
2022-07-25T09:54:22.595Z,951.7078857
2022-07-25T09:55:23.408Z,951.6821289
2022-07-25T09:56:24.231Z,951.6466675
2022-07-25T09:57:25.006Z,951.6749268
2022-07-25T09:58:25.762Z,951.6940918
2022-07-25T09:59:26.435Z,951.6815796
2022-07-25T10:00:27.709Z,951.6361694
2022-07-25T10:01:59.546Z,951.5904541
2022-07-25T10:03:00.173Z,951.5726318
2022-07-25T10:04:00.854Z,951.5829468
2022-07-25T10:05:01.623Z,951.5626831
2022-07-25T10:06:02.463Z,951.5543823
2022-07-25T10:07:04.146Z,951.6625977
2022-07-25T10:08:04.875Z,951.6325684
2022-07-25T10:09:05.658Z,951.5915527
2022-07-25T10:10:06.449Z,951.5856934
2022-07-25T10:11:08.152Z,951.5612793
2022-07-25T10:12:08.976Z,951.5321655
2022-07-25T10:13:10.800Z,951.5457153
2022-07-25T10:14:11.642Z,951.6029053
2022-07-25T10:15:12.379Z,951.5953979
2022-07-25T10:16:13.277Z,951.5568237
2022-07-25T10:17:14.080Z,951.5551758
2022-07-25T10:18:14.770Z,951.5531006
2022-07-25T10:19:15.479Z,951.5334473
2022-07-25T10:20:16.196Z,951.4765015
2022-07-25T10:21:26.175Z,951.4398193
2022-07-25T10:22:29.385Z,951.4245605
2022-07-25T10:23:19.043Z,951.3720093
2022-07-25T10:24:19.773Z,951.3637695
2022-07-25T10:25:20.506Z,951.3828125
2022-07-25T10:26:21.312Z,951.394165
2022-07-25T10:27:22.103Z,951.3435059
2022-07-25T10:28:22.810Z,951.3915405
2022-07-25T10:29:23.630Z,951.3556519
2022-07-25T10:30:24.405Z,951.3739014
2022-07-25T10:31:26.089Z,951.3964233
2022-07-25T10:32:26.804Z,951.368103
2022-07-25T10:33:57.853Z,951.3616943
2022-07-25T10:34:58.595Z,951.3175659
2022-07-25T10:36:00.027Z,951.3225098
2022-07-25T10:37:00.806Z,951.3301392
2022-07-25T10:38:01.533Z,951.3526611
2022-07-25T10:39:02.180Z,951.3817139
2022-07-25T10:40:03.135Z,951.3534546
2022-07-25T10:41:04.511Z,951.3178101
2022-07-25T10:42:06.148Z,951.381897
2022-07-25T10:43:06.909Z,951.2561646
2022-07-25T10:44:07.835Z,951.3937378
2022-07-25T10:45:08.419Z,951.3117065
2022-07-25T10:46:09.287Z,951.2802124
2022-07-25T10:47:10.019Z,951.2640381
2022-07-25T10:48:10.730Z,951.2971802
2022-07-25T10:49:12.166Z,951.2786865
2022-07-25T10:50:29.748Z,951.2737427
2022-07-25T10:51:14.039Z,951.2988892
2022-07-25T10:52:14.797Z,951.2173462
2022-07-25T10:53:16.467Z,951.2602539
2022-07-25T10:54:17.168Z,951.2478027
2022-07-25T10:55:17.915Z,951.2404785
2022-07-25T10:56:18.755Z,951.2374878
2022-07-25T10:57:19.555Z,951.166748
2022-07-25T10:58:20.349Z,951.2510986
2022-07-25T10:59:21.040Z,951.1807861
2022-07-25T11:00:22.527Z,951.1569824
2022-07-25T11:01:24.243Z,951.166748
2022-07-25T11:02:24.970Z,951.2550049
2022-07-25T11:03:25.667Z,951.2220459
2022-07-25T11:04:26.394Z,951.1828003
2022-07-25T11:05:57.672Z,951.1171875
2022-07-25T11:06:58.429Z,951.0742188
2022-07-25T11:08:20.631Z,951.140625
2022-07-25T11:09:00.780Z,951.0457764
2022-07-25T11:10:01.606Z,951.1146851